sensor_id;sensor_type;location;lat;lon;timestamp;pressure;altitude;pressure_sealevel;temperature;humidity
57000;BME280;42891;50.006;21.964;2023-04-07T00:03:59;98663.50;;;1.06;100.00
57000;BME280;42891;50.006;21.964;2023-04-07T00:07:59;98654.59;;;0.94;100.00
57000;BME280;42891;50.006;21.964;2023-04-07T00:12:00;98639.50;;;1.00;100.00
57000;BME280;42891;50.006;21.964;2023-04-07T00:16:01;98657.75;;;1.15;100.00
57000;BME280;42891;50.006;21.964;2023-04-07T00:20:02;98649.88;;;1.16;100.00
57000;BME280;42891;50.006;21.964;2023-04-07T00:24:02;98640.25;;;1.02;100.00
57000;BME280;42891;50.006;21.964;2023-04-07T00:28:03;98621.03;;;1.05;100.00
57000;BME280;42891;50.006;21.964;2023-04-07T00:32:03;98623.53;;;1.07;100.00
57000;BME280;42891;50.006;21.964;2023-04-07T00:36:05;98627.75;;;1.09;100.00
57000;BME280;42891;50.006;21.964;2023-04-07T00:40:06;98623.81;;;1.02;100.00
57000;BME280;42891;50.006;21.964;2023-04-07T00:44:07;98615.00;;;1.05;100.00
57000;BME280;42891;50.006;21.964;2023-04-07T00:48:07;98620.44;;;1.00;100.00
57000;BME280;42891;50.006;21.964;2023-04-07T00:52:08;98604.78;;;1.01;100.00
57000;BME280;42891;50.006;21.964;2023-04-07T00:56:10;98607.88;;;0.92;100.00
57000;BME280;42891;50.006;21.964;2023-04-07T01:00:11;98613.56;;;1.15;100.00
57000;BME280;42891;50.006;21.964;2023-04-07T01:04:25;98605.19;;;1.10;100.00
57000;BME280;42891;50.006;21.964;2023-04-07T01:08:39;98615.41;;;1.13;100.00
57000;BME280;42891;50.006;21.964;2023-04-07T01:12:53;98616.34;;;1.12;100.00
57000;BME280;42891;50.006;21.964;2023-04-07T01:16:56;98610.97;;;1.15;100.00
57000;BME280;42891;50.006;21.964;2023-04-07T01:21:05;98613.47;;;1.16;100.00
57000;BME280;42891;50.006;21.964;2023-04-07T01:25:26;98596.72;;;1.06;100.00
57000;BME280;42891;50.006;21.964;2023-04-07T01:29:33;98594.03;;;1.08;100.00
57000;BME280;42891;50.006;21.964;2023-04-07T01:33:35;98593.59;;;1.15;100.00
57000;BME280;42891;50.006;21.964;2023-04-07T01:37:36;98576.91;;;1.04;100.00
57000;BME280;42891;50.006;21.964;2023-04-07T01:41:38;98565.09;;;1.14;100.00
57000;BME280;42891;50.006;21.964;2023-04-07T01:45:39;98597.03;;;1.16;100.00
57000;BME280;42891;50.006;21.964;2023-04-07T01:49:42;98602.66;;;1.24;100.00
57000;BME280;42891;50.006;21.964;2023-04-07T01:53:43;98604.25;;;1.27;100.00
57000;BME280;42891;50.006;21.964;2023-04-07T01:57:44;98613.28;;;1.35;100.00
57000;BME280;42891;50.006;21.964;2023-04-07T02:01:44;98596.94;;;1.33;100.00
57000;BME280;42891;50.006;21.964;2023-04-07T02:05:47;98602.88;;;1.35;100.00
57000;BME280;42891;50.006;21.964;2023-04-07T02:09:49;98616.09;;;1.47;100.00
57000;BME280;42891;50.006;21.964;2023-04-07T02:13:52;98589.03;;;1.35;100.00
57000;BME280;42891;50.006;21.964;2023-04-07T02:17:56;98587.88;;;1.25;100.00
57000;BME280;42891;50.006;21.964;2023-04-07T02:21:58;98551.09;;;1.00;100.00
57000;BME280;42891;50.006;21.964;2023-04-07T02:26:00;98579.31;;;1.23;100.00
57000;BME280;42891;50.006;21.964;2023-04-07T02:30:00;98596.84;;;1.19;100.00
57000;BME280;42891;50.006;21.964;2023-04-07T02:34:01;98594.53;;;0.98;100.00
57000;BME280;42891;50.006;21.964;2023-04-07T02:38:01;98589.59;;;1.10;100.00
57000;BME280;42891;50.006;21.964;2023-04-07T02:42:01;98586.72;;;0.98;100.00
57000;BME280;42891;50.006;21.964;2023-04-07T02:46:02;98571.06;;;0.84;100.00
57000;BME280;42891;50.006;21.964;2023-04-07T02:50:02;98580.03;;;0.94;100.00
57000;BME280;42891;50.006;21.964;2023-04-07T02:54:03;98560.84;;;0.81;100.00
57000;BME280;42891;50.006;21.964;2023-04-07T02:58:03;98577.78;;;0.88;100.00
57000;BME280;42891;50.006;21.964;2023-04-07T03:02:03;98577.50;;;0.93;100.00
57000;BME280;42891;50.006;21.964;2023-04-07T03:06:04;98576.00;;;0.89;100.00
57000;BME280;42891;50.006;21.964;2023-04-07T03:10:05;98605.28;;;0.92;100.00
57000;BME280;42891;50.006;21.964;2023-04-07T03:14:06;98612.06;;;1.11;100.00
57000;BME280;42891;50.006;21.964;2023-04-07T03:18:06;98605.53;;;1.04;100.00
57000;BME280;42891;50.006;21.964;2023-04-07T03:22:06;98592.09;;;0.95;100.00
57000;BME280;42891;50.006;21.964;2023-04-07T03:26:07;98599.09;;;0.95;100.00
57000;BME280;42891;50.006;21.964;2023-04-07T03:30:08;98581.53;;;0.98;100.00
57000;BME280;42891;50.006;21.964;2023-04-07T03:34:08;98605.53;;;1.04;100.00
57000;BME280;42891;50.006;21.964;2023-04-07T03:38:09;98602.00;;;1.05;100.00
57000;BME280;42891;50.006;21.964;2023-04-07T03:42:10;98629.75;;;1.04;100.00
57000;BME280;42891;50.006;21.964;2023-04-07T03:46:10;98617.84;;;1.00;100.00
57000;BME280;42891;50.006;21.964;2023-04-07T03:50:10;98622.72;;;1.06;100.00
57000;BME280;42891;50.006;21.964;2023-04-07T03:54:11;98606.78;;;0.96;100.00
57000;BME280;42891;50.006;21.964;2023-04-07T03:58:11;98615.25;;;1.00;100.00
57000;BME280;42891;50.006;21.964;2023-04-07T04:02:12;98613.16;;;1.07;100.00
57000;BME280;42891;50.006;21.964;2023-04-07T04:06:13;98611.22;;;1.10;100.00
57000;BME280;42891;50.006;21.964;2023-04-07T04:10:13;98617.78;;;1.01;100.00
57000;BME280;42891;50.006;21.964;2023-04-07T04:14:14;98616.34;;;1.12;100.00
57000;BME280;42891;50.006;21.964;2023-04-07T04:18:14;98618.09;;;1.11;100.00
57000;BME280;42891;50.006;21.964;2023-04-07T04:22:15;98622.13;;;1.17;100.00
57000;BME280;42891;50.006;21.964;2023-04-07T04:26:16;98626.81;;;1.10;100.00
57000;BME280;42891;50.006;21.964;2023-04-07T04:30:16;98624.13;;;1.12;100.00
57000;BME280;42891;50.006;21.964;2023-04-07T04:34:16;98633.94;;;1.07;100.00
57000;BME280;42891;50.006;21.964;2023-04-07T04:38:17;98650.47;;;1.22;100.00
57000;BME280;42891;50.006;21.964;2023-04-07T04:42:17;98638.47;;;1.19;100.00
57000;BME280;42891;50.006;21.964;2023-04-07T04:46:18;98642.41;;;1.26;100.00
57000;BME280;42891;50.006;21.964;2023-04-07T04:50:18;98622.53;;;1.25;100.00
57000;BME280;42891;50.006;21.964;2023-04-07T04:54:19;98627.75;;;1.25;100.00
57000;BME280;42891;50.006;21.964;2023-04-07T04:58:20;98612.56;;;1.17;100.00
57000;BME280;42891;50.006;21.964;2023-04-07T05:02:20;98628.34;;;1.14;100.00
57000;BME280;42891;50.006;21.964;2023-04-07T05:06:21;98639.22;;;1.05;100.00
57000;BME280;42891;50.006;21.964;2023-04-07T05:10:22;98650.88;;;1.30;100.00
57000;BME280;42891;50.006;21.964;2023-04-07T05:14:22;98588.78;;;0.93;100.00
57000;BME280;42891;50.006;21.964;2023-04-07T05:18:22;98628.97;;;1.18;100.00
57000;BME280;42891;50.006;21.964;2023-04-07T05:22:23;98628.66;;;1.24;100.00
57000;BME280;42891;50.006;21.964;2023-04-07T05:26:23;98640.16;;;1.20;100.00
57000;BME280;42891;50.006;21.964;2023-04-07T05:30:24;98636.47;;;1.24;100.00
57000;BME280;42891;50.006;21.964;2023-04-07T05:34:24;98618.94;;;1.12;100.00
57000;BME280;42891;50.006;21.964;2023-04-07T05:38:26;98625.72;;;0.98;100.00
57000;BME280;42891;50.006;21.964;2023-04-07T05:42:26;98646.84;;;1.08;100.00
57000;BME280;42891;50.006;21.964;2023-04-07T05:46:26;98647.28;;;1.16;100.00
57000;BME280;42891;50.006;21.964;2023-04-07T05:50:28;98659.59;;;1.29;100.00
57000;BME280;42891;50.006;21.964;2023-04-07T05:54:28;98656.09;;;1.30;100.00
57000;BME280;42891;50.006;21.964;2023-04-07T05:58:29;98654.66;;;1.24;100.00
57000;BME280;42891;50.006;21.964;2023-04-07T06:02:29;98650.66;;;1.18;100.00
57000;BME280;42891;50.006;21.964;2023-04-07T06:06:30;98663.75;;;1.17;100.00
57000;BME280;42891;50.006;21.964;2023-04-07T06:10:30;98659.44;;;1.32;100.00
57000;BME280;42891;50.006;21.964;2023-04-07T06:14:31;98660.59;;;1.42;100.00
57000;BME280;42891;50.006;21.964;2023-04-07T06:18:31;98664.69;;;1.46;100.00
57000;BME280;42891;50.006;21.964;2023-04-07T06:22:31;98656.63;;;1.51;100.00
57000;BME280;42891;50.006;21.964;2023-04-07T06:26:32;98649.81;;;1.48;100.00
57000;BME280;42891;50.006;21.964;2023-04-07T06:30:33;98662.75;;;1.50;100.00
57000;BME280;42891;50.006;21.964;2023-04-07T06:34:33;98667.53;;;1.58;100.00
57000;BME280;42891;50.006;21.964;2023-04-07T06:38:33;98638.97;;;1.42;100.00
57000;BME280;42891;50.006;21.964;2023-04-07T06:42:34;98669.63;;;1.51;100.00
57000;BME280;42891;50.006;21.964;2023-04-07T06:46:34;98673.31;;;1.63;100.00
57000;BME280;42891;50.006;21.964;2023-04-07T06:50:36;98670.09;;;1.43;100.00
57000;BME280;42891;50.006;21.964;2023-04-07T06:54:39;98668.63;;;1.53;100.00
57000;BME280;42891;50.006;21.964;2023-04-07T06:58:40;98684.78;;;1.75;100.00
57000;BME280;42891;50.006;21.964;2023-04-07T07:02:40;98679.66;;;1.73;100.00
57000;BME280;42891;50.006;21.964;2023-04-07T07:06:41;98670.16;;;1.72;100.00
57000;BME280;42891;50.006;21.964;2023-04-07T07:10:41;98667.72;;;1.85;100.00
57000;BME280;42891;50.006;21.964;2023-04-07T07:14:41;98666.13;;;1.82;100.00
57000;BME280;42891;50.006;21.964;2023-04-07T07:18:42;98678.88;;;1.87;100.00
57000;BME280;42891;50.006;21.964;2023-04-07T07:22:42;98670.88;;;1.90;100.00
57000;BME280;42891;50.006;21.964;2023-04-07T07:26:42;98662.31;;;1.74;100.00
57000;BME280;42891;50.006;21.964;2023-04-07T07:30:44;98670.88;;;1.90;100.00
57000;BME280;42891;50.006;21.964;2023-04-07T07:34:44;98670.88;;;1.90;100.00
57000;BME280;42891;50.006;21.964;2023-04-07T07:38:45;98670.72;;;1.93;100.00
57000;BME280;42891;50.006;21.964;2023-04-07T07:42:45;98678.03;;;1.86;100.00
57000;BME280;42891;50.006;21.964;2023-04-07T07:46:46;98687.38;;;1.75;100.00
57000;BME280;42891;50.006;21.964;2023-04-07T07:50:46;98688.09;;;1.93;100.00
57000;BME280;42891;50.006;21.964;2023-04-07T07:54:48;98685.66;;;1.90;100.00
57000;BME280;42891;50.006;21.964;2023-04-07T07:58:49;98694.59;;;2.00;100.00
57000;BME280;42891;50.006;21.964;2023-04-07T08:02:49;98692.97;;;1.99;100.00
57000;BME280;42891;50.006;21.964;2023-04-07T08:06:50;98710.19;;;2.16;100.00
57000;BME280;42891;50.006;21.964;2023-04-07T08:10:51;98694.59;;;2.00;100.00
57000;BME280;42891;50.006;21.964;2023-04-07T08:14:51;98716.94;;;2.04;100.00
57000;BME280;42891;50.006;21.964;2023-04-07T08:18:52;98717.31;;;1.98;100.00
57000;BME280;42891;50.006;21.964;2023-04-07T08:22:52;98717.97;;;2.01;100.00
57000;BME280;42891;50.006;21.964;2023-04-07T08:26:52;98718.63;;;2.05;100.00
57000;BME280;42891;50.006;21.964;2023-04-07T08:30:53;98692.88;;;2.00;100.00
57000;BME280;42891;50.006;21.964;2023-04-07T08:34:54;98724.47;;;2.39;100.00
57000;BME280;42891;50.006;21.964;2023-04-07T08:38:55;98735.84;;;2.52;100.00
57000;BME280;42891;50.006;21.964;2023-04-07T08:42:57;98733.88;;;2.56;100.00
57000;BME280;42891;50.006;21.964;2023-04-07T08:47:00;98738.94;;;2.73;99.97
57000;BME280;42891;50.006;21.964;2023-04-07T08:51:04;98735.56;;;2.71;99.95
57000;BME280;42891;50.006;21.964;2023-04-07T08:55:06;98737.91;;;2.62;99.90
57000;BME280;42891;50.006;21.964;2023-04-07T08:59:12;98749.91;;;2.64;100.00
57000;BME280;42891;50.006;21.964;2023-04-07T09:03:12;98741.44;;;2.61;100.00
57000;BME280;42891;50.006;21.964;2023-04-07T09:07:12;98737.59;;;2.66;100.00
57000;BME280;42891;50.006;21.964;2023-04-07T09:11:13;98726.44;;;2.64;100.00
57000;BME280;42891;50.006;21.964;2023-04-07T09:15:13;98753.09;;;2.84;100.00
57000;BME280;42891;50.006;21.964;2023-04-07T09:19:13;98730.66;;;2.67;100.00
57000;BME280;42891;50.006;21.964;2023-04-07T09:23:30;98733.81;;;2.86;100.00
57000;BME280;42891;50.006;21.964;2023-04-07T09:27:31;98745.81;;;2.89;100.00
57000;BME280;42891;50.006;21.964;2023-04-07T09:31:47;98716.94;;;2.63;100.00
57000;BME280;42891;50.006;21.964;2023-04-07T09:35:53;98734.56;;;2.60;100.00
57000;BME280;42891;50.006;21.964;2023-04-07T09:39:53;98747.50;;;2.61;100.00
57000;BME280;42891;50.006;21.964;2023-04-07T09:43:55;98743.56;;;2.54;100.00
57000;BME280;42891;50.006;21.964;2023-04-07T09:47:56;98746.94;;;2.56;100.00
57000;BME280;42891;50.006;21.964;2023-04-07T09:52:02;98752.47;;;2.50;100.00
57000;BME280;42891;50.006;21.964;2023-04-07T09:56:08;98761.94;;;2.67;100.00
57000;BME280;42891;50.006;21.964;2023-04-07T10:00:10;98767.34;;;2.78;100.00
57000;BME280;42891;50.006;21.964;2023-04-07T10:04:10;98764.34;;;2.84;100.00
57000;BME280;42891;50.006;21.964;2023-04-07T10:08:11;98761.84;;;2.68;100.00
57000;BME280;42891;50.006;21.964;2023-04-07T10:12:12;98754.75;;;2.70;100.00
57000;BME280;42891;50.006;21.964;2023-04-07T10:16:14;98761.84;;;2.68;100.00
57000;BME280;42891;50.006;21.964;2023-04-07T10:20:18;98750.25;;;2.58;100.00
57000;BME280;42891;50.006;21.964;2023-04-07T10:28:45;98743.41;;;2.57;100.00
57000;BME280;42891;50.006;21.964;2023-04-07T10:32:49;98765.16;;;2.70;100.00
57000;BME280;42891;50.006;21.964;2023-04-07T10:37:11;98790.31;;;2.86;100.00
57000;BME280;42891;50.006;21.964;2023-04-07T10:41:35;98790.25;;;2.87;100.00
57000;BME280;42891;50.006;21.964;2023-04-07T10:50:17;98812.50;;;3.07;100.00
57000;BME280;42891;50.006;21.964;2023-04-07T10:54:22;98804.69;;;3.07;100.00
57000;BME280;42891;50.006;21.964;2023-04-07T10:58:28;98788.94;;;3.09;99.75
57000;BME280;42891;50.006;21.964;2023-04-07T11:02:30;98805.03;;;3.30;99.14
57000;BME280;42891;50.006;21.964;2023-04-07T11:06:31;98810.34;;;3.29;98.48
57000;BME280;42891;50.006;21.964;2023-04-07T11:10:35;98811.47;;;3.39;99.22
57000;BME280;42891;50.006;21.964;2023-04-07T11:14:35;98809.34;;;3.31;99.66
57000;BME280;42891;50.006;21.964;2023-04-07T11:18:37;98816.13;;;3.34;99.86
57000;BME280;42891;50.006;21.964;2023-04-07T11:22:37;98791.53;;;3.09;100.00
57000;BME280;42891;50.006;21.964;2023-04-07T11:26:39;98815.47;;;3.30;100.00
57000;BME280;42891;50.006;21.964;2023-04-07T11:30:45;98824.44;;;3.40;100.00
57000;BME280;42891;50.006;21.964;2023-04-07T11:34:46;98798.63;;;3.21;100.00
57000;BME280;42891;50.006;21.964;2023-04-07T11:38:46;98818.56;;;3.37;100.00
57000;BME280;42891;50.006;21.964;2023-04-07T11:42:46;98825.47;;;3.38;100.00
57000;BME280;42891;50.006;21.964;2023-04-07T11:47:00;98849.41;;;3.45;100.00
57000;BME280;42891;50.006;21.964;2023-04-07T11:51:02;98842.78;;;3.53;100.00
57000;BME280;42891;50.006;21.964;2023-04-07T11:55:03;98845.03;;;3.60;100.00
57000;BME280;42891;50.006;21.964;2023-04-07T11:59:03;98832.72;;;3.47;100.00
57000;BME280;42891;50.006;21.964;2023-04-07T12:03:10;98842.31;;;3.61;99.46
57000;BME280;42891;50.006;21.964;2023-04-07T12:07:13;98846.66;;;3.75;100.00
57000;BME280;42891;50.006;21.964;2023-04-07T12:11:13;98835.78;;;3.68;99.95
57000;BME280;42891;50.006;21.964;2023-04-07T12:15:13;98848.44;;;3.74;98.28
57000;BME280;42891;50.006;21.964;2023-04-07T12:19:14;98850.94;;;3.76;98.30
57000;BME280;42891;50.006;21.964;2023-04-07T12:23:14;98865.00;;;3.88;99.52
57000;BME280;42891;50.006;21.964;2023-04-07T12:27:15;98868.09;;;3.80;97.66
57000;BME280;42891;50.006;21.964;2023-04-07T12:31:15;98863.38;;;3.72;97.32
57000;BME280;42891;50.006;21.964;2023-04-07T12:35:16;98881.50;;;3.88;98.08
57000;BME280;42891;50.006;21.964;2023-04-07T12:39:17;98874.38;;;3.78;98.69
57000;BME280;42891;50.006;21.964;2023-04-07T12:43:17;98849.66;;;3.69;98.27
57000;BME280;42891;50.006;21.964;2023-04-07T12:47:18;98866.81;;;3.73;97.96
57000;BME280;42891;50.006;21.964;2023-04-07T12:51:18;98882.53;;;3.86;97.96
57000;BME280;42891;50.006;21.964;2023-04-07T12:55:18;98875.09;;;3.80;98.36
57000;BME280;42891;50.006;21.964;2023-04-07T12:59:19;98874.81;;;3.84;98.65
57000;BME280;42891;50.006;21.964;2023-04-07T13:03:19;98884.63;;;3.81;98.44
57000;BME280;42891;50.006;21.964;2023-04-07T13:07:19;98886.56;;;3.77;98.19
57000;BME280;42891;50.006;21.964;2023-04-07T13:11:21;98878.75;;;3.77;99.36
57000;BME280;42891;50.006;21.964;2023-04-07T13:15:22;98903.91;;;3.92;98.41
57000;BME280;42891;50.006;21.964;2023-04-07T13:19:23;98900.41;;;4.06;100.00
57000;BME280;42891;50.006;21.964;2023-04-07T13:23:24;98898.66;;;4.07;100.00
57000;BME280;42891;50.006;21.964;2023-04-07T13:27:24;98909.84;;;4.09;100.00
57000;BME280;42891;50.006;21.964;2023-04-07T13:31:25;98910.19;;;4.17;100.00
57000;BME280;42891;50.006;21.964;2023-04-07T13:35:25;98899.00;;;4.15;98.75
57000;BME280;42891;50.006;21.964;2023-04-07T13:39:25;98900.41;;;4.21;99.00
57000;BME280;42891;50.006;21.964;2023-04-07T13:43:26;98919.22;;;4.26;98.45
57000;BME280;42891;50.006;21.964;2023-04-07T13:47:26;98911.31;;;4.28;98.07
57000;BME280;42891;50.006;21.964;2023-04-07T13:51:29;98919.16;;;4.28;95.07
57000;BME280;42891;50.006;21.964;2023-04-07T13:55:29;98905.06;;;4.16;94.66
57000;BME280;42891;50.006;21.964;2023-04-07T13:59:30;98920.78;;;4.29;95.38
57000;BME280;42891;50.006;21.964;2023-04-07T14:03:30;98916.59;;;4.26;95.26
57000;BME280;42891;50.006;21.964;2023-04-07T14:07:30;98927.06;;;4.26;93.82
57000;BME280;42891;50.006;21.964;2023-04-07T14:11:32;98932.63;;;4.34;94.82
57000;BME280;42891;50.006;21.964;2023-04-07T14:15:33;98929.28;;;4.32;95.81
57000;BME280;42891;50.006;21.964;2023-04-07T14:19:34;98917.56;;;4.25;94.07
57000;BME280;42891;50.006;21.964;2023-04-07T14:23:35;98923.72;;;4.24;93.76
57000;BME280;42891;50.006;21.964;2023-04-07T14:27:36;98933.97;;;4.27;94.64
57000;BME280;42891;50.006;21.964;2023-04-07T14:31:36;98944.41;;;4.27;93.97
57000;BME280;42891;50.006;21.964;2023-04-07T14:35:37;98941.59;;;4.30;93.11
57000;BME280;42891;50.006;21.964;2023-04-07T14:39:37;98950.34;;;4.43;94.21
57000;BME280;42891;50.006;21.964;2023-04-07T14:43:38;98940.94;;;4.41;94.27
57000;BME280;42891;50.006;21.964;2023-04-07T14:47:38;98939.06;;;4.43;93.50
57000;BME280;42891;50.006;21.964;2023-04-07T14:51:39;98934.56;;;4.45;94.32
57000;BME280;42891;50.006;21.964;2023-04-07T14:55:40;98936.38;;;4.57;95.30
57000;BME280;42891;50.006;21.964;2023-04-07T14:59:41;98925.09;;;4.57;94.88
57000;BME280;42891;50.006;21.964;2023-04-07T15:03:42;98935.97;;;4.64;95.61
57000;BME280;42891;50.006;21.964;2023-04-07T15:07:42;98950.34;;;4.71;92.60
57000;BME280;42891;50.006;21.964;2023-04-07T15:11:44;98954.56;;;4.73;93.41
57000;BME280;42891;50.006;21.964;2023-04-07T15:15:54;98942.63;;;4.69;93.69
57000;BME280;42891;50.006;21.964;2023-04-07T15:19:54;98959.97;;;4.70;94.37
57000;BME280;42891;50.006;21.964;2023-04-07T15:23:54;98965.09;;;4.72;93.28
57000;BME280;42891;50.006;21.964;2023-04-07T15:27:54;98970.31;;;4.72;95.22
57000;BME280;42891;50.006;21.964;2023-04-07T15:31:55;98970.25;;;4.73;94.78
57000;BME280;42891;50.006;21.964;2023-04-07T15:35:55;98978.59;;;4.66;94.12
57000;BME280;42891;50.006;21.964;2023-04-07T15:39:56;98980.44;;;4.64;95.66
57000;BME280;42891;50.006;21.964;2023-04-07T15:43:58;98978.22;;;4.57;94.62
57000;BME280;42891;50.006;21.964;2023-04-07T15:47:58;98978.78;;;4.63;95.73
57000;BME280;42891;50.006;21.964;2023-04-07T15:51:59;98980.25;;;4.67;95.31
57000;BME280;42891;50.006;21.964;2023-04-07T15:56:00;98979.72;;;4.61;94.73
57000;BME280;42891;50.006;21.964;2023-04-07T16:00:00;98974.78;;;4.57;94.65
57000;BME280;42891;50.006;21.964;2023-04-07T16:04:01;98995.50;;;4.60;94.60
57000;BME280;42891;50.006;21.964;2023-04-07T16:08:01;98998.94;;;4.60;94.34
57000;BME280;42891;50.006;21.964;2023-04-07T16:12:01;98959.63;;;4.35;94.54
57000;BME280;42891;50.006;21.964;2023-04-07T16:16:02;98985.78;;;4.62;94.79
57000;BME280;42891;50.006;21.964;2023-04-07T16:20:02;98990.81;;;4.65;94.76
57000;BME280;42891;50.006;21.964;2023-04-07T16:24:03;98999.09;;;4.72;94.73
57000;BME280;42891;50.006;21.964;2023-04-07T16:28:04;98993.44;;;4.65;93.71
57000;BME280;42891;50.006;21.964;2023-04-07T16:32:05;99021.81;;;4.71;94.27
57000;BME280;42891;50.006;21.964;2023-04-07T16:36:05;99024.44;;;4.71;94.31
57000;BME280;42891;50.006;21.964;2023-04-07T16:40:07;99029.66;;;4.71;93.92
57000;BME280;42891;50.006;21.964;2023-04-07T16:44:07;99033.97;;;4.72;94.39
57000;BME280;42891;50.006;21.964;2023-04-07T16:48:08;99033.59;;;4.64;94.39
57000;BME280;42891;50.006;21.964;2023-04-07T16:52:08;99050.97;;;4.65;94.47
57000;BME280;42891;50.006;21.964;2023-04-07T16:56:19;99051.63;;;4.69;94.44
57000;BME280;42891;50.006;21.964;2023-04-07T17:00:20;99056.00;;;4.68;93.84
57000;BME280;42891;50.006;21.964;2023-04-07T17:04:21;99062.06;;;4.69;93.83
57000;BME280;42891;50.006;21.964;2023-04-07T17:08:22;99077.03;;;4.67;93.35
57000;BME280;42891;50.006;21.964;2023-04-07T17:12:24;99065.34;;;4.58;93.62
57000;BME280;42891;50.006;21.964;2023-04-07T17:16:25;99067.81;;;4.61;93.19
57000;BME280;42891;50.006;21.964;2023-04-07T17:20:25;99079.09;;;4.61;93.25
57000;BME280;42891;50.006;21.964;2023-04-07T17:24:26;99097.09;;;4.66;93.70
57000;BME280;42891;50.006;21.964;2023-04-07T17:28:26;99094.06;;;4.59;93.90
57000;BME280;42891;50.006;21.964;2023-04-07T17:32:29;99096.84;;;4.56;93.84
57000;BME280;42891;50.006;21.964;2023-04-07T17:36:29;99114.41;;;4.54;93.96
57000;BME280;42891;50.006;21.964;2023-04-07T17:40:33;99118.25;;;4.49;94.30
57000;BME280;42891;50.006;21.964;2023-04-07T17:44:33;99119.84;;;4.51;93.67
57000;BME280;42891;50.006;21.964;2023-04-07T17:48:34;99134.41;;;4.55;94.41
57000;BME280;42891;50.006;21.964;2023-04-07T17:52:34;99135.03;;;4.59;94.25
57000;BME280;42891;50.006;21.964;2023-04-07T17:56:35;99129.91;;;4.57;94.22
57000;BME280;42891;50.006;21.964;2023-04-07T18:00:36;99143.19;;;4.54;94.58
57000;BME280;42891;50.006;21.964;2023-04-07T18:04:36;99150.84;;;4.57;94.19
57000;BME280;42891;50.006;21.964;2023-04-07T18:08:37;99158.09;;;4.52;94.64
57000;BME280;42891;50.006;21.964;2023-04-07T18:12:37;99159.91;;;4.52;94.46
57000;BME280;42891;50.006;21.964;2023-04-07T18:16:38;99173.44;;;4.58;94.19
57000;BME280;42891;50.006;21.964;2023-04-07T18:20:39;99182.78;;;4.63;93.88
57000;BME280;42891;50.006;21.964;2023-04-07T18:24:40;99159.41;;;4.45;93.87
57000;BME280;42891;50.006;21.964;2023-04-07T18:28:40;99176.88;;;4.59;93.80
57000;BME280;42891;50.006;21.964;2023-04-07T18:32:42;99196.22;;;4.56;93.97
57000;BME280;42891;50.006;21.964;2023-04-07T18:36:42;99195.47;;;4.54;94.45
57000;BME280;42891;50.006;21.964;2023-04-07T18:40:43;99206.03;;;4.53;94.07
57000;BME280;42891;50.006;21.964;2023-04-07T18:44:43;99213.78;;;4.54;94.47
57000;BME280;42891;50.006;21.964;2023-04-07T18:48:43;99213.97;;;4.51;94.06
57000;BME280;42891;50.006;21.964;2023-04-07T18:52:44;99211.91;;;4.42;94.72
57000;BME280;42891;50.006;21.964;2023-04-07T18:56:44;99217.47;;;4.36;94.54
57000;BME280;42891;50.006;21.964;2023-04-07T19:00:46;99230.78;;;4.47;94.91
57000;BME280;42891;50.006;21.964;2023-04-07T19:04:48;99236.06;;;4.46;94.95
57000;BME280;42891;50.006;21.964;2023-04-07T19:08:48;99231.66;;;4.32;94.93
57000;BME280;42891;50.006;21.964;2023-04-07T19:12:49;99215.28;;;4.14;95.68
57000;BME280;42891;50.006;21.964;2023-04-07T19:16:50;99216.16;;;4.14;95.79
57000;BME280;42891;50.006;21.964;2023-04-07T19:20:51;99230.63;;;4.20;95.76
57000;BME280;42891;50.006;21.964;2023-04-07T19:24:51;99233.63;;;4.28;95.62
57000;BME280;42891;50.006;21.964;2023-04-07T19:28:51;99224.72;;;4.16;95.73
57000;BME280;42891;50.006;21.964;2023-04-07T19:32:52;99221.56;;;4.11;95.82
57000;BME280;42891;50.006;21.964;2023-04-07T19:36:53;99223.31;;;4.10;95.80
57000;BME280;42891;50.006;21.964;2023-04-07T19:40:53;99254.44;;;4.15;96.27
57000;BME280;42891;50.006;21.964;2023-04-07T19:44:53;99231.25;;;4.09;96.35
57000;BME280;42891;50.006;21.964;2023-04-07T19:48:56;99245.63;;;4.16;96.73
57000;BME280;42891;50.006;21.964;2023-04-07T19:52:56;99241.78;;;4.07;96.43
57000;BME280;42891;50.006;21.964;2023-04-07T19:56:56;99244.13;;;4.12;96.60
57000;BME280;42891;50.006;21.964;2023-04-07T20:00:57;99226.72;;;3.97;96.73
57000;BME280;42891;50.006;21.964;2023-04-07T20:04:57;99252.84;;;4.13;96.80
57000;BME280;42891;50.006;21.964;2023-04-07T20:08:57;99258.31;;;4.08;96.33
57000;BME280;42891;50.006;21.964;2023-04-07T20:12:58;99250.22;;;4.13;95.67
57000;BME280;42891;50.006;21.964;2023-04-07T20:16:58;99233.88;;;4.09;95.45
57000;BME280;42891;50.006;21.964;2023-04-07T20:20:59;99258.84;;;4.29;94.90
57000;BME280;42891;50.006;21.964;2023-04-07T20:25:00;99263.22;;;4.29;95.03
57000;BME280;42891;50.006;21.964;2023-04-07T20:29:04;99279.84;;;4.28;95.17
57000;BME280;42891;50.006;21.964;2023-04-07T20:33:05;99272.44;;;4.20;95.13
57000;BME280;42891;50.006;21.964;2023-04-07T20:37:05;99264.59;;;4.20;95.22
57000;BME280;42891;50.006;21.964;2023-04-07T20:41:11;99264.78;;;4.17;95.46
57000;BME280;42891;50.006;21.964;2023-04-07T20:45:11;99245.34;;;4.06;95.85
57000;BME280;42891;50.006;21.964;2023-04-07T20:49:11;99268.94;;;4.05;96.16
57000;BME280;42891;50.006;21.964;2023-04-07T20:53:12;99260.50;;;4.00;95.95
57000;BME280;42891;50.006;21.964;2023-04-07T20:57:12;99252.13;;;3.95;96.64
57000;BME280;42891;50.006;21.964;2023-04-07T21:01:13;99259.66;;;4.15;95.96
57000;BME280;42891;50.006;21.964;2023-04-07T21:05:13;99244.31;;;4.09;95.10
57000;BME280;42891;50.006;21.964;2023-04-07T21:09:13;99266.94;;;4.24;93.84
57000;BME280;42891;50.006;21.964;2023-04-07T21:13:14;99273.88;;;4.25;93.21
57000;BME280;42891;50.006;21.964;2023-04-07T21:17:14;99257.16;;;4.28;93.02
57000;BME280;42891;50.006;21.964;2023-04-07T21:21:15;99256.34;;;4.28;92.42